Bookmark and Share
Track history (hours):
 

Overseas Skopelos

Last reported at 2014-Mar-10 12:33 UTC. Time now 2014-Apr-16 07:45 UTC.
Position N 29°18' W 121°26'.
Warning: this ship's position is 36 days out of date.

Length 183 m; draft 11.8 m.

Type: Tanker. MMSI: 538003726.

NotesDate/timePositionNaut miles runAvg speedWind from/ knotsBaromVisibWave heightAir tempDewpointWater temp
2014-Mar-10 12:33N 29°18' W 121°26'1313.0
2014-Mar-10 11:33N 29°28' W 121°36'6412.9
2014-Mar-10 06:33N 30°20' W 122°21'3912.9
2014-Mar-10 03:33N 30°51' W 122°48'1313.0
2014-Mar-10 02:33N 31°01' W 122°57'1313.1
2014-Mar-10 01:32N 31°12' W 123°06'1313.5
2014-Mar-10 00:33N 31°22' W 123°16'1413.5
2014-Mar-09 23:33N 31°33' W 123°25'1313.4
2014-Mar-09 22:33N 31°44' W 123°35'1313.2
2014-Mar-09 21:33N 31°54' W 123°45'1411.7
2014-Mar-09 20:20N 32°07' W 123°52'2413.5
2014-Mar-09 18:33N 32°29' W 124°02'4113.6
2014-Mar-09 15:34N 33°07' W 124°19'1313.3
2014-Mar-09 14:34N 33°20' W 124°24'4013.3
2014-Mar-09 11:32N 33°60' W 124°29'1313.6
2014-Mar-09 10:33N 34°12' W 124°24'1313.3
2014-Mar-09 09:33N 34°25' W 124°19'1313.3
2014-Mar-09 08:33N 34°38' W 124°14'1313.5
2014-Mar-09 07:33N 34°51' W 124°10'1313.1
2014-Mar-09 06:33N 35°03' W 124°05'1313.4
2014-Mar-09 05:33N 35°16' W 124°00'1313.0
2014-Mar-09 04:33N 35°29' W 123°55'1313.0
2014-Mar-09 03:33N 35°41' W 123°51'1313.3
2014-Mar-09 02:33N 35°54' W 123°46'1313.3
2014-Mar-09 01:33N 36°06' W 123°41'1313.4
2014-Mar-09 00:33N 36°19' W 123°36'1313.2
2014-Mar-08 23:33N 36°32' W 123°31'1313.4
2014-Mar-08 22:34N 36°44' W 123°26'1313.3
2014-Mar-08 21:33N 36°57' W 123°21'812.4
2014-Mar-08 20:53N 37°05' W 123°18'410.9
2014-Mar-08 20:33N 37°09' W 123°17'10 9.8
2014-Mar-08 19:33N 37°18' W 123°13'1211.9
2014-Mar-08 18:33N 37°29' W 123°09'1212.2
2014-Mar-08 17:33N 37°37' W 122°57'1212.1
2014-Mar-08 16:32N 37°44' W 122°44'8 8.2
2014-Mar-08 15:33N 37°47' W 122°35'9 9.0
2014-Mar-08 14:33N 37°49' W 122°24'4 3.7
2014-Mar-08 13:30N 37°46' W 122°21'0 0.1
2014-Mar-08 12:33N 37°46' W 122°21'0 0.0
2014-Mar-08 11:33N 37°46' W 122°21'0 0.0
2014-Mar-08 10:33N 37°46' W 122°21'0 0.0
2014-Mar-08 09:30N 37°46' W 122°21'0 0.0
2014-Mar-08 08:33N 37°46' W 122°21'0 0.1
2014-Mar-08 07:33N 37°46' W 122°21'2 2.1
2014-Mar-08 06:33N 37°48' W 122°22'8 7.7
2014-Mar-08 05:34N 37°55' W 122°25'1 0.0
2014-Mar-06 14:23N 37°55' W 122°25'0 0.0
2014-Mar-06 13:11N 37°55' W 122°25'0 0.0
2014-Mar-06 11:29N 37°55' W 122°25'0 0.0
2014-Mar-06 10:23N 37°55' W 122°25'0 0.0
2014-Mar-06 07:05N 37°55' W 122°25'0 0.0
2014-Mar-06 06:11N 37°55' W 122°25'0 0.0
2014-Mar-06 00:11N 37°55' W 122°25'0 0.0
2014-Mar-05 23:23N 37°55' W 122°25'0 0.0
2014-Mar-05 22:05N 37°55' W 122°25'0 0.0
2014-Mar-05 21:11N 37°55' W 122°25'0 0.0
2014-Mar-05 20:11N 37°55' W 122°25'0 0.0
2014-Mar-04 22:29N 37°55' W 122°25'0 0.0
2014-Mar-04 21:29N 37°55' W 122°25'0 0.0
2014-Mar-04 20:12N 37°55' W 122°25'2 3.1
2014-Mar-04 19:33N 37°54' W 122°25'1010.1
2014-Mar-04 18:33N 37°47' W 122°35'9 9.3
2014-Mar-04 17:33N 37°42' W 122°45'1111.5
2014-Mar-04 16:33N 37°35' W 122°57'1313.0
2014-Mar-04 15:33N 37°26' W 123°08'  

Dump ship's entire track history

sailing weather and tide predictions

Overseas Skopelos — V7SU9 — position and weather